createdAt,value
2022-12-13T00:01:48.510Z,100158.25
2022-12-13T00:04:18.718Z,100155.09
2022-12-13T00:06:47.469Z,100149.97
2022-12-13T00:09:17.172Z,100141.41
2022-12-13T00:11:46.241Z,100143.53
2022-12-13T00:14:15.087Z,100146.81
2022-12-13T00:16:47.894Z,100136.91
2022-12-13T00:19:19.286Z,100137.94
2022-12-13T00:21:48.802Z,100131.19
2022-12-13T00:24:17.443Z,100133.44
2022-12-13T00:26:45.718Z,100124.75
2022-12-13T00:29:14.266Z,100125.06
2022-12-13T00:34:32.202Z,100119.97
2022-12-13T00:37:00.632Z,100118.63
2022-12-13T00:39:29.851Z,100111.00
2022-12-13T00:41:58.459Z,100121.81
2022-12-13T00:44:27.035Z,100107.44
2022-12-13T00:46:55.307Z,100110.13
2022-12-13T00:49:23.654Z,100100.22
2022-12-13T00:51:53.302Z,100093.63
2022-12-13T00:54:22.859Z,100094.50
2022-12-13T00:56:52.402Z,100099.00
2022-12-13T00:59:21.297Z,100095.25
2022-12-13T01:01:49.944Z,100094.94
2022-12-13T01:04:18.637Z,100091.09
2022-12-13T01:06:51.382Z,100088.22
2022-12-13T01:09:23.574Z,100079.53
2022-12-13T01:11:52.423Z,100086.28
2022-12-13T01:14:21.289Z,100090.31
2022-12-13T01:16:50.952Z,100091.66
2022-12-13T01:19:19.162Z,100094.22
2022-12-13T01:21:47.625Z,100100.03
2022-12-13T01:24:16.677Z,100110.38
2022-12-13T01:26:47.717Z,100108.84
2022-12-13T01:29:17.147Z,100110.66
2022-12-13T01:31:45.751Z,100115.72
2022-12-13T01:34:16.808Z,100110.59
2022-12-13T01:36:47.262Z,100114.03
2022-12-13T01:39:16.375Z,100112.09
2022-12-13T01:41:47.587Z,100110.72
2022-12-13T01:45:00.249Z,100106.22
2022-12-13T01:47:32.946Z,100096.44
2022-12-13T01:50:07.689Z,100098.09
2022-12-13T01:52:37.066Z,100096.72
2022-12-13T01:55:08.455Z,100101.50
2022-12-13T01:57:45.418Z,100108.41
2022-12-13T02:00:16.186Z,100099.09
2022-12-13T02:02:44.666Z,100104.94
2022-12-13T02:05:19.726Z,100098.34
2022-12-13T02:07:49.328Z,100092.66
2022-12-13T02:10:18.132Z,100092.22
2022-12-13T02:12:48.786Z,100086.41
2022-12-13T02:15:19.667Z,100083.81
2022-12-13T02:18:12.036Z,100089.78
2022-12-13T02:21:19.121Z,100083.34
2022-12-13T02:24:28.160Z,100081.97
2022-12-13T02:27:10.491Z,100087.03
2022-12-13T02:30:14.753Z,100093.94
2022-12-13T02:32:53.351Z,100089.16
2022-12-13T02:35:27.575Z,100080.69
2022-12-13T02:38:06.398Z,100088.31
2022-12-13T02:40:39.890Z,100085.03
2022-12-13T02:43:12.760Z,100083.91
2022-12-13T02:45:46.395Z,100076.03
2022-12-13T02:48:17.991Z,100078.00
2022-12-13T02:50:48.440Z,100073.31
2022-12-13T02:53:18.081Z,100067.03
2022-12-13T02:55:46.739Z,100067.63
2022-12-13T02:58:16.913Z,100062.53
2022-12-13T03:00:56.691Z,100063.75
2022-12-13T03:03:42.193Z,100064.75
2022-12-13T03:06:33.471Z,100063.72
2022-12-13T03:09:24.398Z,100064.47
2022-12-13T03:12:28.139Z,100062.19
2022-12-13T03:15:04.701Z,100059.03
2022-12-13T03:17:39.226Z,100060.66
2022-12-13T03:20:22.347Z,100053.91
2022-12-13T03:22:51.185Z,100052.09
2022-12-13T03:25:31.291Z,100058.09
2022-12-13T03:28:02.644Z,100052.09
2022-12-13T03:30:33.113Z,100046.56
2022-12-13T03:33:02.875Z,100046.09
2022-12-13T03:35:34.257Z,100049.25
2022-12-13T03:38:21.345Z,100052.38
2022-12-13T03:40:54.794Z,100047.88
2022-12-13T03:43:23.619Z,100042.75
2022-12-13T03:45:53.021Z,100040.97
2022-12-13T03:48:24.225Z,100044.66
2022-12-13T03:50:54.818Z,100039.31
2022-12-13T03:53:32.307Z,100053.00
2022-12-13T03:56:02.891Z,100040.44
2022-12-13T03:58:36.134Z,100040.78
2022-12-13T04:01:07.941Z,100049.44
2022-12-13T04:03:39.360Z,100045.81
2022-12-13T04:06:08.506Z,100042.41
2022-12-13T04:08:38.298Z,100035.38
2022-12-13T04:11:21.287Z,100039.41
2022-12-13T04:13:49.413Z,100038.34
2022-12-13T04:16:17.720Z,100045.81
2022-12-13T04:18:47.529Z,100043.72
2022-12-13T04:21:15.681Z,100042.66
2022-12-13T04:23:44.064Z,100049.38
2022-12-13T04:26:12.193Z,100044.25
2022-12-13T04:28:40.376Z,100044.25
2022-12-13T04:31:08.619Z,100047.00
2022-12-13T04:33:37.192Z,100041.44
2022-12-13T04:36:09.172Z,100038.84
2022-12-13T04:38:37.225Z,100034.41
2022-12-13T04:41:07.341Z,100045.47
2022-12-13T04:43:36.899Z,100050.56
2022-12-13T04:46:05.287Z,100052.03
2022-12-13T04:48:34.443Z,100053.66
2022-12-13T04:51:03.253Z,100050.38
2022-12-13T04:53:37.871Z,100047.22
2022-12-13T04:56:06.857Z,100056.31
2022-12-13T04:58:36.606Z,100049.59
2022-12-13T05:01:08.254Z,100044.50
2022-12-13T05:03:36.885Z,100048.09
2022-12-13T05:06:06.539Z,100047.31
2022-12-13T05:09:00.811Z,100041.91
2022-12-13T05:11:35.636Z,100034.31
2022-12-13T05:14:04.641Z,100031.31
2022-12-13T05:16:33.016Z,100034.00
2022-12-13T05:19:01.350Z,100041.66
2022-12-13T05:21:29.482Z,100039.13
2022-12-13T05:23:59.426Z,100034.63
2022-12-13T05:26:27.777Z,100034.16
2022-12-13T05:28:56.676Z,100047.00
2022-12-13T05:31:25.141Z,100043.44
2022-12-13T05:33:53.704Z,100042.06
2022-12-13T05:36:25.366Z,100043.69
2022-12-13T05:38:54.349Z,100039.94
2022-12-13T05:41:25.780Z,100042.91
2022-12-13T05:43:54.224Z,100031.16
2022-12-13T05:46:22.439Z,100024.16
2022-12-13T05:48:50.621Z,100025.97
2022-12-13T05:51:18.751Z,100028.03
2022-12-13T05:53:51.675Z,100028.81
2022-12-13T05:56:23.364Z,100027.59
2022-12-13T05:58:53.555Z,100021.75
2022-12-13T06:01:23.606Z,100022.91
2022-12-13T06:03:52.904Z,100008.97
2022-12-13T06:06:22.214Z,100008.53
2022-12-13T06:08:50.594Z,100018.72
2022-12-13T06:11:31.383Z,100028.34
2022-12-13T06:14:01.861Z,100033.72
2022-12-13T06:16:29.908Z,100030.72
2022-12-13T06:19:04.287Z,100035.16
2022-12-13T06:21:41.561Z,100036.44
2022-12-13T06:24:15.733Z,100036.06
2022-12-13T06:26:45.225Z,100041.03
2022-12-13T06:29:23.823Z,100029.72
2022-12-13T06:32:01.890Z,100037.97
2022-12-13T06:34:33.767Z,100039.03
2022-12-13T06:37:03.723Z,100027.25
2022-12-13T06:39:32.424Z,100027.22
2022-12-13T06:42:03.082Z,100028.88
2022-12-13T06:44:33.421Z,100013.63
2022-12-13T06:47:11.492Z,100022.16
2022-12-13T06:49:44.941Z,100016.88
2022-12-13T06:52:14.886Z,100016.88
2022-12-13T06:54:43.722Z,100011.75
2022-12-13T06:57:13.210Z,100026.59
2022-12-13T06:59:43.185Z,100028.34
2022-12-13T07:02:24.560Z,100026.88
2022-12-13T07:04:56.314Z,100024.94
2022-12-13T07:07:26.696Z,100028.69
2022-12-13T07:09:56.220Z,100027.78
2022-12-13T07:12:24.810Z,100031.22
2022-12-13T07:14:55.055Z,100025.84
2022-12-13T07:17:33.141Z,100025.84
2022-12-13T07:20:08.327Z,100024.94
2022-12-13T07:22:45.230Z,100033.81
2022-12-13T07:25:28.561Z,100031.16
2022-12-13T07:28:01.454Z,100027.56
2022-12-13T07:30:34.307Z,100021.91
2022-12-13T07:33:10.615Z,100021.91
2022-12-13T07:35:39.381Z,100028.78
2022-12-13T07:38:10.723Z,100022.50
2022-12-13T07:40:41.090Z,100039.84
2022-12-13T07:43:11.943Z,100043.13
2022-12-13T07:45:41.801Z,100047.94
2022-12-13T07:48:10.063Z,100049.44
2022-12-13T07:50:38.844Z,100046.75
2022-12-13T07:53:07.659Z,100053.97
2022-12-13T07:55:36.723Z,100051.03
2022-12-13T07:58:07.068Z,100044.88
2022-12-13T08:00:36.802Z,100041.72
2022-12-13T08:03:06.979Z,100046.81
2022-12-13T08:05:38.561Z,100032.16
2022-12-13T08:08:10.169Z,100046.84
2022-12-13T08:10:39.423Z,100042.66
2022-12-13T08:13:07.793Z,100048.34
2022-12-13T08:15:36.042Z,100054.50
2022-12-13T08:18:06.608Z,100069.19
2022-12-13T08:20:34.863Z,100078.19
2022-12-13T08:23:03.198Z,100083.44
2022-12-13T08:25:32.021Z,100070.25
2022-12-13T08:28:02.155Z,100089.13
2022-12-13T08:30:33.208Z,100073.25
2022-12-13T08:33:05.016Z,100070.72
2022-12-13T08:35:35.518Z,100070.53
2022-12-13T08:38:04.508Z,100063.94
2022-12-13T08:40:33.651Z,100063.63
2022-12-13T08:43:02.172Z,100066.50
2022-12-13T08:45:31.658Z,100062.16
2022-12-13T08:48:00.303Z,100065.47
2022-12-13T08:50:30.081Z,100073.69
2022-12-13T08:53:00.231Z,100072.66
2022-12-13T08:55:31.292Z,100077.31
2022-12-13T08:58:01.262Z,100083.16
2022-12-13T09:00:36.130Z,100081.19
2022-12-13T09:03:05.627Z,100083.88
2022-12-13T09:05:38.676Z,100086.72
2022-12-13T09:08:23.658Z,100074.56
2022-12-13T09:11:01.177Z,100071.56
2022-12-13T09:13:43.648Z,100070.97
2022-12-13T09:16:23.565Z,100083.09
2022-12-13T09:18:54.934Z,100090.78
2022-12-13T09:21:31.615Z,100079.19
2022-12-13T09:24:02.635Z,100079.06
2022-12-13T09:26:38.279Z,100077.53
2022-12-13T09:29:11.141Z,100073.78
2022-12-13T09:31:41.079Z,100080.19
2022-12-13T09:34:10.100Z,100077.47
2022-12-13T09:36:39.932Z,100073.53
2022-12-13T09:39:11.779Z,100080.84
2022-12-13T09:41:44.142Z,100074.69
2022-12-13T09:44:32.658Z,100069.44
2022-12-13T09:47:04.219Z,100062.59
2022-12-13T09:49:51.721Z,100074.28
2022-12-13T09:52:23.834Z,100067.03
2022-12-13T09:54:56.564Z,100082.72
2022-12-13T09:57:30.978Z,100082.53
2022-12-13T10:00:02.523Z,100072.63
2022-12-13T10:02:44.566Z,100069.50
2022-12-13T10:05:33.736Z,100065.97
2022-12-13T10:08:08.827Z,100064.47
2022-12-13T10:10:38.633Z,100049.81
2022-12-13T10:13:17.860Z,100050.31
2022-12-13T10:15:52.083Z,100053.84
2022-12-13T10:18:27.927Z,100045.00
2022-12-13T10:20:57.387Z,100036.03
2022-12-13T10:23:47.001Z,100039.84
2022-12-13T10:26:23.830Z,100042.75
2022-12-13T10:29:03.893Z,100047.69
2022-12-13T10:31:41.352Z,100054.22
2022-12-13T10:34:21.172Z,100047.22
2022-12-13T10:36:49.468Z,100040.41
2022-12-13T10:39:20.260Z,100039.47
2022-12-13T10:41:50.304Z,100030.84
2022-12-13T10:44:25.505Z,100030.47
2022-12-13T10:47:04.455Z,100019.44
2022-12-13T10:49:41.293Z,100017.56
2022-12-13T10:52:31.431Z,100009.06
2022-12-13T10:55:04.448Z,100003.28
2022-12-13T10:57:56.613Z,100003.50
2022-12-13T11:00:34.824Z,100004.53
2022-12-13T11:03:04.915Z,100007.31
2022-12-13T11:05:34.805Z,100001.78
2022-12-13T11:08:16.404Z,100003.47
2022-12-13T11:10:45.011Z,99997.97
2022-12-13T11:13:39.145Z,100001.94
2022-12-13T11:16:23.941Z,99998.16
2022-12-13T11:18:54.865Z,99983.28
2022-12-13T11:21:27.096Z,99986.38
2022-12-13T11:24:01.813Z,99983.78
2022-12-13T11:26:33.605Z,99978.84
2022-12-13T11:29:32.783Z,99983.84
2022-12-13T11:32:09.491Z,99981.91
2022-12-13T11:34:46.834Z,99981.00
2022-12-13T11:37:27.155Z,99971.44
2022-12-13T11:40:01.834Z,99965.31
2022-12-13T11:42:34.525Z,99962.19
2022-12-13T11:45:22.879Z,99967.06
2022-12-13T11:48:03.914Z,99962.94
2022-12-13T11:50:37.033Z,99970.94
2022-12-13T11:53:24.209Z,99966.56
2022-12-13T11:55:57.513Z,99946.38
2022-12-13T11:59:01.171Z,99942.53
2022-12-13T12:01:28.997Z,99944.25
2022-12-13T12:04:04.362Z,99932.91
2022-12-13T12:06:39.770Z,99935.00
2022-12-13T12:09:15.259Z,99938.22
2022-12-13T12:11:50.372Z,99930.69
2022-12-13T12:14:23.643Z,99921.06
2022-12-13T12:16:56.107Z,99922.81
2022-12-13T12:19:28.149Z,99924.66
2022-12-13T12:22:14.876Z,99912.56
2022-12-13T12:24:59.235Z,99925.63
2022-12-13T12:27:38.396Z,99922.66
2022-12-13T12:30:27.855Z,99929.44
2022-12-13T12:33:07.951Z,99918.72
2022-12-13T12:36:01.331Z,99911.34
2022-12-13T12:39:00.903Z,99918.03
2022-12-13T12:41:46.465Z,99913.94
2022-12-13T12:44:33.822Z,99912.00
2022-12-13T12:50:23.776Z,99906.84
2022-12-13T12:53:01.964Z,99910.59
2022-12-13T12:55:49.048Z,99907.66
2022-12-13T12:58:28.022Z,99898.28
2022-12-13T13:01:15.875Z,99902.00
2022-12-13T13:03:46.558Z,99908.19
2022-12-13T13:06:22.059Z,99904.75
2022-12-13T13:08:56.809Z,99904.22
2022-12-13T13:11:27.212Z,99905.00
2022-12-13T13:14:06.518Z,99901.03
2022-12-13T13:16:40.262Z,99905.72
2022-12-13T13:19:39.735Z,99897.06
2022-12-13T13:22:32.793Z,99898.56
2022-12-13T13:25:23.237Z,99905.28
2022-12-13T13:27:52.769Z,99901.59
2022-12-13T13:30:22.026Z,99901.59
2022-12-13T13:32:52.278Z,99908.00
2022-12-13T13:35:53.327Z,99895.41
2022-12-13T13:38:55.396Z,99887.47
2022-12-13T13:41:56.545Z,99885.03
2022-12-13T13:44:56.119Z,99881.53
2022-12-13T13:47:40.567Z,99887.97
2022-12-13T13:50:48.959Z,99880.63
2022-12-13T13:53:50.233Z,99884.66
2022-12-13T13:56:35.819Z,99886.06
2022-12-13T13:59:38.707Z,99884.38
2022-12-13T14:02:46.045Z,99876.91
2022-12-13T14:05:48.050Z,99865.53
2022-12-13T14:08:29.828Z,99876.38
2022-12-13T14:11:29.683Z,99880.28
2022-12-13T14:14:50.054Z,99890.34
2022-12-13T14:17:54.245Z,99900.47
2022-12-13T14:20:49.966Z,99898.00
2022-12-13T14:23:38.660Z,99898.66
2022-12-13T14:26:27.903Z,99899.59
2022-12-13T14:28:58.900Z,99898.53
2022-12-13T14:31:33.288Z,99900.25
2022-12-13T14:34:04.406Z,99896.50
2022-12-13T14:36:36.542Z,99897.31
2022-12-13T14:39:24.827Z,99907.16
2022-12-13T14:41:57.328Z,99899.94
2022-12-13T14:44:28.333Z,99902.91
2022-12-13T14:46:58.542Z,99900.31
2022-12-13T14:49:29.401Z,99899.22
2022-12-13T14:52:04.311Z,99899.47
2022-12-13T14:54:43.295Z,99893.47
2022-12-13T14:57:17.297Z,99900.19
2022-12-13T14:59:50.727Z,99886.78
2022-12-13T15:02:30.932Z,99884.47
2022-12-13T15:05:02.005Z,99884.31
2022-12-13T15:07:36.120Z,99885.56
2022-12-13T15:10:19.843Z,99879.06
2022-12-13T15:12:49.099Z,99878.44
2022-12-13T15:15:24.746Z,99878.13
2022-12-13T15:18:17.101Z,99879.53
2022-12-13T15:20:47.935Z,99868.69
2022-12-13T15:23:28.953Z,99873.38
2022-12-13T15:26:04.294Z,99863.69
2022-12-13T15:28:35.899Z,99866.88
2022-12-13T15:31:07.964Z,99857.19
2022-12-13T15:33:44.181Z,99851.97
2022-12-13T15:36:20.981Z,99852.19
2022-12-13T15:39:00.750Z,99849.50
2022-12-13T15:41:33.430Z,99838.06
2022-12-13T15:44:04.449Z,99831.44
2022-12-13T15:46:36.857Z,99831.84
2022-12-13T15:49:07.339Z,99825.34
2022-12-13T15:51:55.575Z,99805.59
2022-12-13T15:54:27.590Z,99813.69
2022-12-13T15:57:03.189Z,99813.84
2022-12-13T15:59:33.894Z,99807.56
2022-12-13T16:02:03.681Z,99810.56
2022-12-13T16:04:34.003Z,99806.47
2022-12-13T16:07:03.221Z,99819.81
2022-12-13T16:09:37.168Z,99811.13
2022-12-13T16:12:08.038Z,99811.63
2022-12-13T16:14:49.461Z,99814.25
2022-12-13T16:17:25.783Z,99813.63
2022-12-13T16:19:55.625Z,99808.22
2022-12-13T16:22:24.271Z,99804.69
2022-12-13T16:24:56.281Z,99802.84
2022-12-13T16:27:25.021Z,99790.56
2022-12-13T16:29:53.320Z,99790.78
2022-12-13T16:32:22.130Z,99786.47
2022-12-13T16:34:50.794Z,99789.59
2022-12-13T16:37:26.236Z,99784.75
2022-12-13T16:39:57.360Z,99787.63
2022-12-13T16:42:27.369Z,99790.78
2022-12-13T16:45:40.543Z,99798.47
2022-12-13T16:47:49.457Z,99799.06
2022-12-13T16:50:21.151Z,99806.75
2022-12-13T16:52:49.862Z,99807.44
2022-12-13T16:55:19.803Z,99809.50
2022-12-13T16:57:58.878Z,99805.63
2022-12-13T17:00:27.873Z,99806.19
2022-12-13T17:02:57.206Z,99803.06
2022-12-13T17:05:26.523Z,99802.53
2022-12-13T17:07:55.381Z,99807.31
2022-12-13T17:10:25.422Z,99799.59
2022-12-13T17:12:53.941Z,99779.84
2022-12-13T17:15:22.435Z,99778.56
2022-12-13T17:17:50.578Z,99780.22
2022-12-13T17:20:19.577Z,99778.75
2022-12-13T17:22:48.301Z,99777.22
2022-12-13T17:25:16.548Z,99781.91
2022-12-13T17:27:46.521Z,99774.53
2022-12-13T17:30:17.059Z,99782.13
2022-12-13T17:32:46.637Z,99786.88
2022-12-13T17:35:18.623Z,99790.09
2022-12-13T17:37:47.775Z,99786.03
2022-12-13T17:40:16.866Z,99782.16
2022-12-13T17:42:49.657Z,99781.25
2022-12-13T17:45:19.579Z,99790.47
2022-12-13T17:47:48.292Z,99787.28
2022-12-13T17:50:16.708Z,99774.81
2022-12-13T17:52:44.872Z,99770.47
2022-12-13T17:55:18.153Z,99770.50
2022-12-13T17:57:50.085Z,99772.03
2022-12-13T18:00:23.048Z,99762.34
2022-12-13T18:02:55.409Z,99762.50
2022-12-13T18:05:26.428Z,99757.78
2022-12-13T18:07:54.837Z,99769.72
2022-12-13T18:10:29.270Z,99781.31
2022-12-13T18:12:59.805Z,99783.69
2022-12-13T18:15:28.651Z,99770.66
2022-12-13T18:18:13.428Z,99770.34
2022-12-13T18:20:42.056Z,99759.78
2022-12-13T18:23:10.635Z,99753.75
2022-12-13T18:25:39.437Z,99738.94
2022-12-13T18:28:10.545Z,99730.81
2022-12-13T18:30:39.512Z,99741.91
2022-12-13T18:33:08.017Z,99733.34
2022-12-13T18:35:36.906Z,99732.78
2022-12-13T18:38:05.108Z,99724.91
2022-12-13T18:40:33.691Z,99726.09
2022-12-13T18:43:01.846Z,99723.22
2022-12-13T18:45:32.033Z,99706.94
2022-12-13T18:48:00.525Z,99712.88
2022-12-13T18:50:28.900Z,99725.50
2022-12-13T18:52:57.680Z,99738.28
2022-12-13T18:55:26.228Z,99737.81
2022-12-13T18:57:54.387Z,99737.88
2022-12-13T19:00:24.184Z,99734.47
2022-12-13T19:02:54.284Z,99707.00
2022-12-13T19:05:23.682Z,99717.09
2022-12-13T19:07:51.884Z,99724.03
2022-12-13T19:10:20.703Z,99718.88
2022-12-13T19:12:51.071Z,99714.38
2022-12-13T19:15:19.887Z,99719.31
2022-12-13T19:17:48.259Z,99699.88
2022-12-13T19:20:18.271Z,99711.75
2022-12-13T19:22:47.083Z,99710.22
2022-12-13T19:25:16.981Z,99712.00
2022-12-13T19:27:47.359Z,99702.31
2022-12-13T19:30:17.659Z,99703.28
2022-12-13T19:32:48.229Z,99710.41
2022-12-13T19:35:18.499Z,99705.59
2022-12-13T19:37:47.304Z,99699.38
2022-12-13T19:40:15.945Z,99694.97
2022-12-13T19:42:44.164Z,99697.34
2022-12-13T19:45:12.521Z,99681.50
2022-12-13T19:47:42.332Z,99672.91
2022-12-13T19:50:15.205Z,99668.19
2022-12-13T19:52:45.731Z,99660.13
2022-12-13T19:55:16.203Z,99645.31
2022-12-13T19:57:44.839Z,99648.50
2022-12-13T20:00:14.903Z,99647.50
2022-12-13T20:02:43.444Z,99655.59
2022-12-13T20:05:12.066Z,99659.13
2022-12-13T20:07:40.760Z,99655.88
2022-12-13T20:10:11.974Z,99647.19
2022-12-13T20:12:42.810Z,99643.53
2022-12-13T20:15:11.517Z,99646.28
2022-12-13T20:17:39.963Z,99647.03
2022-12-13T20:20:09.093Z,99644.38
2022-12-13T20:22:38.900Z,99656.47
2022-12-13T20:25:07.510Z,99652.72
2022-12-13T20:27:37.620Z,99655.72
2022-12-13T20:30:08.541Z,99657.97
2022-12-13T20:32:37.198Z,99650.00
2022-12-13T20:35:06.502Z,99642.88
2022-12-13T20:37:34.785Z,99638.66
2022-12-13T20:40:03.380Z,99634.00
2022-12-13T20:42:31.751Z,99626.84
2022-12-13T20:45:02.095Z,99616.97
2022-12-13T20:47:33.901Z,99605.38
2022-12-13T20:50:07.258Z,99614.78
2022-12-13T20:52:35.955Z,99614.06
2022-12-13T20:55:04.347Z,99599.47
2022-12-13T20:57:33.292Z,99588.59
2022-12-13T21:00:03.334Z,99579.22
2022-12-13T21:02:31.668Z,99572.53
2022-12-13T21:04:59.958Z,99566.13
2022-12-13T21:07:42.168Z,99568.81
2022-12-13T21:10:16.888Z,99579.91
2022-12-13T21:12:45.126Z,99563.63
2022-12-13T21:15:15.163Z,99583.16
2022-12-13T21:17:44.981Z,99574.75
2022-12-13T21:20:13.440Z,99557.50
2022-12-13T21:22:42.112Z,99572.31
2022-12-13T21:25:11.113Z,99567.63
2022-12-13T21:27:40.453Z,99562.41
2022-12-13T21:30:10.052Z,99567.84
2022-12-13T21:32:39.912Z,99560.69
2022-12-13T21:35:11.877Z,99563.66
2022-12-13T21:37:41.165Z,99559.66
2022-12-13T21:40:11.324Z,99560.91
2022-12-13T21:42:39.424Z,99567.53
2022-12-13T21:45:08.485Z,99556.19
2022-12-13T21:47:37.352Z,99548.03
2022-12-13T21:50:08.859Z,99551.00
2022-12-13T21:52:37.983Z,99544.06
2022-12-13T21:55:38.002Z,99542.56
2022-12-13T21:58:13.273Z,99534.66
2022-12-13T22:00:42.803Z,99534.91
2022-12-13T22:03:11.307Z,99525.00
2022-12-13T22:05:41.176Z,99510.44
2022-12-13T22:08:10.010Z,99495.38
2022-12-13T22:10:59.084Z,99488.97
2022-12-13T22:13:27.467Z,99488.25
2022-12-13T22:15:55.743Z,99479.09
2022-12-13T22:18:24.314Z,99474.19
2022-12-13T22:20:58.085Z,99463.84
2022-12-13T22:23:26.349Z,99464.31
2022-12-13T22:25:55.797Z,99458.16
2022-12-13T22:28:24.259Z,99456.16
2022-12-13T22:30:56.670Z,99455.69
2022-12-13T22:33:27.385Z,99450.50
2022-12-13T22:35:58.244Z,99434.94
2022-12-13T22:38:27.242Z,99428.50
2022-12-13T22:41:00.097Z,99430.75
2022-12-13T22:43:28.589Z,99417.41
2022-12-13T22:46:03.722Z,99424.81
2022-12-13T22:48:32.463Z,99427.06
2022-12-13T22:51:06.593Z,99431.47
2022-12-13T22:53:35.129Z,99421.63
2022-12-13T22:56:07.642Z,99425.81
2022-12-13T22:58:36.769Z,99425.81
2022-12-13T23:01:10.798Z,99433.97
2022-12-13T23:03:41.259Z,99425.56
2022-12-13T23:06:14.932Z,99432.00
2022-12-13T23:08:45.969Z,99419.41
2022-12-13T23:11:32.662Z,99427.03
2022-12-13T23:14:08.216Z,99422.59
2022-12-13T23:16:37.759Z,99419.41
2022-12-13T23:19:39.695Z,99424.31
2022-12-13T23:21:57.280Z,99419.88
2022-12-13T23:24:26.132Z,99422.09
2022-12-13T23:26:54.416Z,99428.78
2022-12-13T23:29:22.623Z,99420.38
2022-12-13T23:31:50.852Z,99426.53
2022-12-13T23:34:19.112Z,99419.38
2022-12-13T23:36:48.430Z,99420.34
2022-12-13T23:39:18.157Z,99415.16
2022-12-13T23:41:46.587Z,99407.72
2022-12-13T23:44:14.991Z,99420.56
2022-12-13T23:46:46.424Z,99420.56
2022-12-13T23:49:17.935Z,99424.03
2022-12-13T23:51:45.988Z,99419.06
2022-12-13T23:54:17.740Z,99415.88
2022-12-13T23:56:48.574Z,99421.03
2022-12-13T23:59:18.799Z,99419.06
